sensor_id;sensor_type;location;lat;lon;timestamp;temperature;humidity
20070;DHT22;10195;50.868;4.382;2022-12-15T00:02:28;-1.30;99.90
20070;DHT22;10195;50.868;4.382;2022-12-15T00:05:12;-1.50;99.90
20070;DHT22;10195;50.868;4.382;2022-12-15T00:07:59;-1.50;99.90
20070;DHT22;10195;50.868;4.382;2022-12-15T00:10:48;-1.50;99.90
20070;DHT22;10195;50.868;4.382;2022-12-15T00:13:32;-1.50;99.90
20070;DHT22;10195;50.868;4.382;2022-12-15T00:16:16;-1.40;99.90
20070;DHT22;10195;50.868;4.382;2022-12-15T00:19:00;-1.50;99.90
20070;DHT22;10195;50.868;4.382;2022-12-15T00:21:45;-1.50;99.90
20070;DHT22;10195;50.868;4.382;2022-12-15T00:24:29;-1.50;99.90
20070;DHT22;10195;50.868;4.382;2022-12-15T00:27:13;-1.40;99.90
20070;DHT22;10195;50.868;4.382;2022-12-15T00:29:57;-1.50;99.90
20070;DHT22;10195;50.868;4.382;2022-12-15T00:32:41;-1.60;99.90
20070;DHT22;10195;50.868;4.382;2022-12-15T00:35:25;-1.70;99.90
20070;DHT22;10195;50.868;4.382;2022-12-15T00:38:12;-1.70;99.90
20070;DHT22;10195;50.868;4.382;2022-12-15T00:40:57;-1.60;99.90
20070;DHT22;10195;50.868;4.382;2022-12-15T00:43:29;-1.60;99.90
20070;DHT22;10195;50.868;4.382;2022-12-15T00:45:55;-1.60;99.90
20070;DHT22;10195;50.868;4.382;2022-12-15T00:48:41;-1.50;99.90
20070;DHT22;10195;50.868;4.382;2022-12-15T00:51:06;-1.60;99.90
20070;DHT22;10195;50.868;4.382;2022-12-15T00:53:32;-1.70;99.90
20070;DHT22;10195;50.868;4.382;2022-12-15T00:56:16;-1.80;99.90
20070;DHT22;10195;50.868;4.382;2022-12-15T00:59:01;-1.70;99.90
20070;DHT22;10195;50.868;4.382;2022-12-15T01:01:45;-1.70;99.90
20070;DHT22;10195;50.868;4.382;2022-12-15T01:04:29;-1.70;99.90
20070;DHT22;10195;50.868;4.382;2022-12-15T01:07:13;-1.70;99.90
20070;DHT22;10195;50.868;4.382;2022-12-15T01:09:58;-1.80;99.90
20070;DHT22;10195;50.868;4.382;2022-12-15T01:12:42;-1.80;99.90
20070;DHT22;10195;50.868;4.382;2022-12-15T01:15:26;-1.70;99.90
20070;DHT22;10195;50.868;4.382;2022-12-15T01:18:10;-1.70;99.90
20070;DHT22;10195;50.868;4.382;2022-12-15T01:21:03;-1.60;99.90
20070;DHT22;10195;50.868;4.382;2022-12-15T01:23:30;-1.60;99.90
20070;DHT22;10195;50.868;4.382;2022-12-15T01:25:56;-1.60;99.90
20070;DHT22;10195;50.868;4.382;2022-12-15T01:28:22;-1.50;99.90
20070;DHT22;10195;50.868;4.382;2022-12-15T01:30:48;-1.40;99.90
20070;DHT22;10195;50.868;4.382;2022-12-15T01:33:15;-1.40;99.90
20070;DHT22;10195;50.868;4.382;2022-12-15T01:35:40;-1.50;99.90
20070;DHT22;10195;50.868;4.382;2022-12-15T01:38:07;-1.60;99.90
20070;DHT22;10195;50.868;4.382;2022-12-15T01:40:33;-1.70;99.90
20070;DHT22;10195;50.868;4.382;2022-12-15T01:43:19;-1.80;99.90
20070;DHT22;10195;50.868;4.382;2022-12-15T01:48:14;-1.70;99.90
20070;DHT22;10195;50.868;4.382;2022-12-15T01:50:48;-1.50;99.90
20070;DHT22;10195;50.868;4.382;2022-12-15T01:53:16;-1.60;99.90
20070;DHT22;10195;50.868;4.382;2022-12-15T01:55:43;-1.60;99.90
20070;DHT22;10195;50.868;4.382;2022-12-15T01:58:12;-1.80;99.90
20070;DHT22;10195;50.868;4.382;2022-12-15T02:00:40;-1.80;99.90
20070;DHT22;10195;50.868;4.382;2022-12-15T02:03:06;-1.70;99.90
20070;DHT22;10195;50.868;4.382;2022-12-15T02:05:33;-1.60;99.90
20070;DHT22;10195;50.868;4.382;2022-12-15T02:08:00;-1.80;99.90
20070;DHT22;10195;50.868;4.382;2022-12-15T02:10:45;-1.90;99.90
20070;DHT22;10195;50.868;4.382;2022-12-15T02:13:23;-1.80;99.90
20070;DHT22;10195;50.868;4.382;2022-12-15T02:16:03;-1.90;99.90
20070;DHT22;10195;50.868;4.382;2022-12-15T02:21:28;-2.00;99.90
20070;DHT22;10195;50.868;4.382;2022-12-15T02:35:56;-1.90;99.90
20070;DHT22;10195;50.868;4.382;2022-12-15T02:38:32;-1.90;99.90
20070;DHT22;10195;50.868;4.382;2022-12-15T02:41:00;-2.00;99.90
20070;DHT22;10195;50.868;4.382;2022-12-15T02:43:28;-1.90;99.90
20070;DHT22;10195;50.868;4.382;2022-12-15T02:46:14;-2.00;99.90
20070;DHT22;10195;50.868;4.382;2022-12-15T02:49:13;-2.00;99.90
20070;DHT22;10195;50.868;4.382;2022-12-15T02:54:37;-2.10;99.90
20070;DHT22;10195;50.868;4.382;2022-12-15T03:00:09;-1.90;99.90
20070;DHT22;10195;50.868;4.382;2022-12-15T03:02:38;-1.90;99.90
20070;DHT22;10195;50.868;4.382;2022-12-15T03:05:05;-2.00;99.90
20070;DHT22;10195;50.868;4.382;2022-12-15T03:07:31;-2.00;99.90
20070;DHT22;10195;50.868;4.382;2022-12-15T03:09:59;-2.00;99.90
20070;DHT22;10195;50.868;4.382;2022-12-15T03:12:25;-2.00;99.90
20070;DHT22;10195;50.868;4.382;2022-12-15T03:14:52;-2.00;99.90
20070;DHT22;10195;50.868;4.382;2022-12-15T03:17:17;-1.90;99.90
20070;DHT22;10195;50.868;4.382;2022-12-15T03:19:43;-1.90;99.90
20070;DHT22;10195;50.868;4.382;2022-12-15T03:22:09;-1.90;99.90
20070;DHT22;10195;50.868;4.382;2022-12-15T03:24:35;-1.90;99.90
20070;DHT22;10195;50.868;4.382;2022-12-15T03:27:00;-1.90;99.90
20070;DHT22;10195;50.868;4.382;2022-12-15T03:29:26;-2.00;99.90
20070;DHT22;10195;50.868;4.382;2022-12-15T03:31:52;-1.90;99.90
20070;DHT22;10195;50.868;4.382;2022-12-15T03:34:17;-1.90;99.90
20070;DHT22;10195;50.868;4.382;2022-12-15T03:36:43;-1.80;99.90
20070;DHT22;10195;50.868;4.382;2022-12-15T03:39:09;-1.80;99.90
20070;DHT22;10195;50.868;4.382;2022-12-15T03:41:34;-1.70;99.90
20070;DHT22;10195;50.868;4.382;2022-12-15T03:44:00;-1.80;99.90
20070;DHT22;10195;50.868;4.382;2022-12-15T03:46:26;-1.80;99.90
20070;DHT22;10195;50.868;4.382;2022-12-15T03:48:52;-1.80;99.90
20070;DHT22;10195;50.868;4.382;2022-12-15T03:51:19;-1.80;99.90
20070;DHT22;10195;50.868;4.382;2022-12-15T03:53:44;-1.90;99.90
20070;DHT22;10195;50.868;4.382;2022-12-15T03:56:12;-1.90;99.90
20070;DHT22;10195;50.868;4.382;2022-12-15T03:58:38;-2.00;99.90
20070;DHT22;10195;50.868;4.382;2022-12-15T04:01:27;-1.90;99.90
20070;DHT22;10195;50.868;4.382;2022-12-15T04:03:53;-1.90;99.90
20070;DHT22;10195;50.868;4.382;2022-12-15T04:06:19;-1.90;99.90
20070;DHT22;10195;50.868;4.382;2022-12-15T04:08:46;-1.80;99.90
20070;DHT22;10195;50.868;4.382;2022-12-15T04:11:12;-1.80;99.90
20070;DHT22;10195;50.868;4.382;2022-12-15T04:13:38;-1.90;99.90
20070;DHT22;10195;50.868;4.382;2022-12-15T04:16:04;-1.90;99.90
20070;DHT22;10195;50.868;4.382;2022-12-15T04:18:30;-1.90;99.90
20070;DHT22;10195;50.868;4.382;2022-12-15T04:20:55;-1.90;99.90
20070;DHT22;10195;50.868;4.382;2022-12-15T04:23:21;-1.80;99.90
20070;DHT22;10195;50.868;4.382;2022-12-15T04:25:48;-1.90;99.90
20070;DHT22;10195;50.868;4.382;2022-12-15T04:28:32;-1.90;99.90
20070;DHT22;10195;50.868;4.382;2022-12-15T04:31:21;-1.90;99.90
20070;DHT22;10195;50.868;4.382;2022-12-15T04:34:12;-1.90;99.90
20070;DHT22;10195;50.868;4.382;2022-12-15T04:36:57;-1.90;99.90
20070;DHT22;10195;50.868;4.382;2022-12-15T04:39:44;-2.00;99.90
20070;DHT22;10195;50.868;4.382;2022-12-15T04:42:30;-2.00;99.90
20070;DHT22;10195;50.868;4.382;2022-12-15T04:45:17;-2.00;99.90
20070;DHT22;10195;50.868;4.382;2022-12-15T04:48:02;-2.00;99.90
20070;DHT22;10195;50.868;4.382;2022-12-15T04:50:46;-2.00;99.90
20070;DHT22;10195;50.868;4.382;2022-12-15T04:53:30;-1.90;99.90
20070;DHT22;10195;50.868;4.382;2022-12-15T04:56:15;-2.00;99.90
20070;DHT22;10195;50.868;4.382;2022-12-15T04:58:59;-2.00;99.90
20070;DHT22;10195;50.868;4.382;2022-12-15T05:01:43;-2.00;99.90
20070;DHT22;10195;50.868;4.382;2022-12-15T05:04:28;-1.90;99.90
20070;DHT22;10195;50.868;4.382;2022-12-15T05:07:12;-1.90;99.90
20070;DHT22;10195;50.868;4.382;2022-12-15T05:09:56;-1.90;99.90
20070;DHT22;10195;50.868;4.382;2022-12-15T05:12:41;-1.90;99.90
20070;DHT22;10195;50.868;4.382;2022-12-15T05:15:25;-1.90;99.90
20070;DHT22;10195;50.868;4.382;2022-12-15T05:18:10;-1.90;99.90
20070;DHT22;10195;50.868;4.382;2022-12-15T05:20:54;-1.90;99.90
20070;DHT22;10195;50.868;4.382;2022-12-15T05:23:38;-1.90;99.90
20070;DHT22;10195;50.868;4.382;2022-12-15T05:26:22;-1.80;99.90
20070;DHT22;10195;50.868;4.382;2022-12-15T05:29:06;-1.90;99.90
20070;DHT22;10195;50.868;4.382;2022-12-15T05:31:50;-2.00;99.90
20070;DHT22;10195;50.868;4.382;2022-12-15T05:34:28;-1.90;99.90
20070;DHT22;10195;50.868;4.382;2022-12-15T05:36:55;-2.00;99.90
20070;DHT22;10195;50.868;4.382;2022-12-15T05:39:22;-2.00;99.90
20070;DHT22;10195;50.868;4.382;2022-12-15T05:41:52;-1.90;99.90
20070;DHT22;10195;50.868;4.382;2022-12-15T05:44:18;-1.90;99.90
20070;DHT22;10195;50.868;4.382;2022-12-15T05:46:44;-1.90;99.90
20070;DHT22;10195;50.868;4.382;2022-12-15T05:49:13;-2.00;99.90
20070;DHT22;10195;50.868;4.382;2022-12-15T05:51:41;-1.90;99.90
20070;DHT22;10195;50.868;4.382;2022-12-15T05:54:09;-1.90;99.90
20070;DHT22;10195;50.868;4.382;2022-12-15T05:56:36;-1.90;99.90
20070;DHT22;10195;50.868;4.382;2022-12-15T05:59:03;-1.90;99.90
20070;DHT22;10195;50.868;4.382;2022-12-15T06:01:30;-1.90;99.90
20070;DHT22;10195;50.868;4.382;2022-12-15T06:03:57;-1.90;99.90
20070;DHT22;10195;50.868;4.382;2022-12-15T06:06:23;-1.60;99.90
20070;DHT22;10195;50.868;4.382;2022-12-15T06:08:49;-1.80;99.90
20070;DHT22;10195;50.868;4.382;2022-12-15T06:11:16;-1.80;99.90
20070;DHT22;10195;50.868;4.382;2022-12-15T06:13:42;-1.80;99.90
20070;DHT22;10195;50.868;4.382;2022-12-15T06:16:12;-1.70;99.90
20070;DHT22;10195;50.868;4.382;2022-12-15T06:18:40;-1.70;99.90
20070;DHT22;10195;50.868;4.382;2022-12-15T06:21:09;-1.70;99.90
20070;DHT22;10195;50.868;4.382;2022-12-15T06:23:37;-1.80;99.90
20070;DHT22;10195;50.868;4.382;2022-12-15T06:26:10;-1.80;99.90
20070;DHT22;10195;50.868;4.382;2022-12-15T06:28:37;-1.90;99.90
20070;DHT22;10195;50.868;4.382;2022-12-15T06:31:04;-1.90;99.90
20070;DHT22;10195;50.868;4.382;2022-12-15T06:33:32;-1.90;99.90
20070;DHT22;10195;50.868;4.382;2022-12-15T06:36:03;-1.90;99.90
20070;DHT22;10195;50.868;4.382;2022-12-15T06:38:29;-1.90;99.90
20070;DHT22;10195;50.868;4.382;2022-12-15T06:40:56;-1.90;99.90
20070;DHT22;10195;50.868;4.382;2022-12-15T06:43:22;-1.90;99.90
20070;DHT22;10195;50.868;4.382;2022-12-15T06:45:49;-1.90;99.90
20070;DHT22;10195;50.868;4.382;2022-12-15T06:48:16;-1.90;99.90
20070;DHT22;10195;50.868;4.382;2022-12-15T06:50:42;-1.90;99.90
20070;DHT22;10195;50.868;4.382;2022-12-15T06:53:13;-1.80;99.90
20070;DHT22;10195;50.868;4.382;2022-12-15T06:55:40;-1.80;99.90
20070;DHT22;10195;50.868;4.382;2022-12-15T06:58:06;-1.90;99.90
20070;DHT22;10195;50.868;4.382;2022-12-15T07:03:16;-1.90;99.90
20070;DHT22;10195;50.868;4.382;2022-12-15T07:05:42;-1.90;99.90
20070;DHT22;10195;50.868;4.382;2022-12-15T07:08:13;-1.90;99.90
20070;DHT22;10195;50.868;4.382;2022-12-15T07:10:39;-1.90;99.90
20070;DHT22;10195;50.868;4.382;2022-12-15T07:13:09;-1.90;99.90
20070;DHT22;10195;50.868;4.382;2022-12-15T07:15:35;-1.90;99.90
20070;DHT22;10195;50.868;4.382;2022-12-15T07:18:01;-1.90;99.90
20070;DHT22;10195;50.868;4.382;2022-12-15T07:20:27;-1.80;99.90
20070;DHT22;10195;50.868;4.382;2022-12-15T07:22:53;-1.60;99.90
20070;DHT22;10195;50.868;4.382;2022-12-15T07:25:19;-1.60;99.90
20070;DHT22;10195;50.868;4.382;2022-12-15T07:27:45;-1.70;99.90
20070;DHT22;10195;50.868;4.382;2022-12-15T07:30:12;-1.80;99.90
20070;DHT22;10195;50.868;4.382;2022-12-15T07:32:39;-1.80;99.90
20070;DHT22;10195;50.868;4.382;2022-12-15T07:35:05;-1.70;99.90
20070;DHT22;10195;50.868;4.382;2022-12-15T07:37:33;-1.80;99.90
20070;DHT22;10195;50.868;4.382;2022-12-15T07:39:59;-1.70;99.90
20070;DHT22;10195;50.868;4.382;2022-12-15T07:42:27;-1.60;99.90
20070;DHT22;10195;50.868;4.382;2022-12-15T07:44:53;-1.70;99.90
20070;DHT22;10195;50.868;4.382;2022-12-15T07:47:19;-1.80;99.90
20070;DHT22;10195;50.868;4.382;2022-12-15T07:49:45;-1.80;99.90
20070;DHT22;10195;50.868;4.382;2022-12-15T07:52:11;-1.90;99.90
20070;DHT22;10195;50.868;4.382;2022-12-15T07:54:38;-1.90;99.90
20070;DHT22;10195;50.868;4.382;2022-12-15T07:57:04;-1.90;99.90
20070;DHT22;10195;50.868;4.382;2022-12-15T07:59:32;-1.90;99.90
20070;DHT22;10195;50.868;4.382;2022-12-15T08:01:58;-1.90;99.90
20070;DHT22;10195;50.868;4.382;2022-12-15T08:04:25;-2.00;99.90
20070;DHT22;10195;50.868;4.382;2022-12-15T08:06:52;-2.00;99.90
20070;DHT22;10195;50.868;4.382;2022-12-15T08:09:18;-1.90;99.90
20070;DHT22;10195;50.868;4.382;2022-12-15T08:11:44;-1.90;99.90
20070;DHT22;10195;50.868;4.382;2022-12-15T08:14:09;-1.80;99.90
20070;DHT22;10195;50.868;4.382;2022-12-15T08:16:35;-1.80;99.90
20070;DHT22;10195;50.868;4.382;2022-12-15T08:19:03;-1.70;99.90
20070;DHT22;10195;50.868;4.382;2022-12-15T08:21:29;-1.80;99.90
20070;DHT22;10195;50.868;4.382;2022-12-15T08:23:56;-1.70;99.90
20070;DHT22;10195;50.868;4.382;2022-12-15T08:26:22;-1.50;99.90
20070;DHT22;10195;50.868;4.382;2022-12-15T08:28:48;-1.50;99.90
20070;DHT22;10195;50.868;4.382;2022-12-15T08:31:16;-1.50;99.90
20070;DHT22;10195;50.868;4.382;2022-12-15T08:33:43;-1.50;99.90
20070;DHT22;10195;50.868;4.382;2022-12-15T08:36:11;-1.60;99.90
20070;DHT22;10195;50.868;4.382;2022-12-15T08:38:38;-1.50;99.90
20070;DHT22;10195;50.868;4.382;2022-12-15T08:41:10;-1.30;99.90
20070;DHT22;10195;50.868;4.382;2022-12-15T08:43:36;-1.40;99.90
20070;DHT22;10195;50.868;4.382;2022-12-15T08:46:03;-1.30;99.90
20070;DHT22;10195;50.868;4.382;2022-12-15T08:48:33;-1.20;99.90
20070;DHT22;10195;50.868;4.382;2022-12-15T08:51:00;-1.00;99.90
20070;DHT22;10195;50.868;4.382;2022-12-15T08:53:26;-0.90;99.90
20070;DHT22;10195;50.868;4.382;2022-12-15T08:55:52;-0.60;99.90
20070;DHT22;10195;50.868;4.382;2022-12-15T08:58:18;-0.20;99.90
20070;DHT22;10195;50.868;4.382;2022-12-15T09:00:44;0.30;99.90
20070;DHT22;10195;50.868;4.382;2022-12-15T09:03:10;0.70;99.90
20070;DHT22;10195;50.868;4.382;2022-12-15T09:05:37;1.20;99.90
20070;DHT22;10195;50.868;4.382;2022-12-15T09:08:03;1.70;99.90
20070;DHT22;10195;50.868;4.382;2022-12-15T09:10:29;2.00;99.90
20070;DHT22;10195;50.868;4.382;2022-12-15T09:12:55;2.80;99.90
20070;DHT22;10195;50.868;4.382;2022-12-15T09:15:20;3.50;99.90
20070;DHT22;10195;50.868;4.382;2022-12-15T09:17:46;3.80;99.90
20070;DHT22;10195;50.868;4.382;2022-12-15T09:20:13;4.40;99.90
20070;DHT22;10195;50.868;4.382;2022-12-15T09:22:39;5.20;99.90
20070;DHT22;10195;50.868;4.382;2022-12-15T09:25:06;5.60;99.90
20070;DHT22;10195;50.868;4.382;2022-12-15T09:27:31;5.20;99.90
20070;DHT22;10195;50.868;4.382;2022-12-15T09:29:58;4.50;99.90
20070;DHT22;10195;50.868;4.382;2022-12-15T09:32:24;4.40;99.90
20070;DHT22;10195;50.868;4.382;2022-12-15T09:34:50;4.30;99.90
20070;DHT22;10195;50.868;4.382;2022-12-15T09:37:16;4.50;99.90
20070;DHT22;10195;50.868;4.382;2022-12-15T09:39:41;4.70;99.90
20070;DHT22;10195;50.868;4.382;2022-12-15T09:42:28;4.50;99.90
20070;DHT22;10195;50.868;4.382;2022-12-15T09:45:14;4.50;99.90
20070;DHT22;10195;50.868;4.382;2022-12-15T09:47:58;4.80;99.90
20070;DHT22;10195;50.868;4.382;2022-12-15T09:50:34;5.50;99.90
20070;DHT22;10195;50.868;4.382;2022-12-15T09:53:02;6.10;99.90
20070;DHT22;10195;50.868;4.382;2022-12-15T09:55:31;6.40;99.90
20070;DHT22;10195;50.868;4.382;2022-12-15T10:00:57;7.40;99.90
20070;DHT22;10195;50.868;4.382;2022-12-15T10:06:42;7.00;99.90
20070;DHT22;10195;50.868;4.382;2022-12-15T10:09:21;5.60;99.90
20070;DHT22;10195;50.868;4.382;2022-12-15T10:14:53;4.50;99.90
20070;DHT22;10195;50.868;4.382;2022-12-15T10:17:38;4.80;99.90
20070;DHT22;10195;50.868;4.382;2022-12-15T10:20:19;5.20;99.90
20070;DHT22;10195;50.868;4.382;2022-12-15T10:22:45;5.30;99.90
20070;DHT22;10195;50.868;4.382;2022-12-15T10:25:26;5.50;99.90
20070;DHT22;10195;50.868;4.382;2022-12-15T10:31:00;5.70;99.90
20070;DHT22;10195;50.868;4.382;2022-12-15T10:33:37;5.70;99.90
20070;DHT22;10195;50.868;4.382;2022-12-15T10:36:09;5.90;99.90
20070;DHT22;10195;50.868;4.382;2022-12-15T10:38:38;6.10;99.90
20070;DHT22;10195;50.868;4.382;2022-12-15T10:41:11;6.50;99.90
20070;DHT22;10195;50.868;4.382;2022-12-15T10:43:43;7.10;99.90
20070;DHT22;10195;50.868;4.382;2022-12-15T10:46:20;7.80;99.90
20070;DHT22;10195;50.868;4.382;2022-12-15T10:48:51;8.80;99.90
20070;DHT22;10195;50.868;4.382;2022-12-15T10:51:34;9.70;99.90
20070;DHT22;10195;50.868;4.382;2022-12-15T10:54:19;10.40;99.90
20070;DHT22;10195;50.868;4.382;2022-12-15T11:07:45;8.60;99.90
20070;DHT22;10195;50.868;4.382;2022-12-15T11:10:30;8.80;99.90
20070;DHT22;10195;50.868;4.382;2022-12-15T11:13:21;8.70;99.90
20070;DHT22;10195;50.868;4.382;2022-12-15T11:15:48;7.00;99.90
20070;DHT22;10195;50.868;4.382;2022-12-15T11:21:04;4.70;99.90
20070;DHT22;10195;50.868;4.382;2022-12-15T11:23:40;4.70;99.90
20070;DHT22;10195;50.868;4.382;2022-12-15T11:29:00;4.90;99.90
20070;DHT22;10195;50.868;4.382;2022-12-15T11:31:35;4.80;99.90
20070;DHT22;10195;50.868;4.382;2022-12-15T11:34:02;4.30;99.90
20070;DHT22;10195;50.868;4.382;2022-12-15T11:48:13;3.70;99.90
20070;DHT22;10195;50.868;4.382;2022-12-15T12:01:48;4.30;99.90
20070;DHT22;10195;50.868;4.382;2022-12-15T12:04:38;4.40;99.90
20070;DHT22;10195;50.868;4.382;2022-12-15T12:09:54;4.60;99.90
20070;DHT22;10195;50.868;4.382;2022-12-15T12:12:32;4.60;99.90
20070;DHT22;10195;50.868;4.382;2022-12-15T12:17:46;4.70;99.90
20070;DHT22;10195;50.868;4.382;2022-12-15T12:20:18;4.60;99.90
20070;DHT22;10195;50.868;4.382;2022-12-15T12:25:22;4.50;99.90
20070;DHT22;10195;50.868;4.382;2022-12-15T12:28:01;4.00;99.90
20070;DHT22;10195;50.868;4.382;2022-12-15T12:30:48;3.70;99.90
20070;DHT22;10195;50.868;4.382;2022-12-15T12:33:34;3.90;99.90
20070;DHT22;10195;50.868;4.382;2022-12-15T12:36:12;4.10;99.90
20070;DHT22;10195;50.868;4.382;2022-12-15T12:38:46;4.20;99.90
20070;DHT22;10195;50.868;4.382;2022-12-15T12:43:41;4.40;99.90
20070;DHT22;10195;50.868;4.382;2022-12-15T12:46:29;4.40;99.90
20070;DHT22;10195;50.868;4.382;2022-12-15T12:51:36;4.40;99.90
20070;DHT22;10195;50.868;4.382;2022-12-15T12:54:45;4.40;99.90
20070;DHT22;10195;50.868;4.382;2022-12-15T12:59:40;4.10;99.90
20070;DHT22;10195;50.868;4.382;2022-12-15T13:04:41;3.90;99.90
20070;DHT22;10195;50.868;4.382;2022-12-15T13:07:27;4.00;99.90
20070;DHT22;10195;50.868;4.382;2022-12-15T13:10:18;4.20;99.90
20070;DHT22;10195;50.868;4.382;2022-12-15T13:12:45;4.10;99.90
20070;DHT22;10195;50.868;4.382;2022-12-15T13:18:02;4.10;99.90
20070;DHT22;10195;50.868;4.382;2022-12-15T13:20:32;4.20;99.90
20070;DHT22;10195;50.868;4.382;2022-12-15T13:44:28;3.90;99.90
20070;DHT22;10195;50.868;4.382;2022-12-15T13:47:42;3.80;99.90
20070;DHT22;10195;50.868;4.382;2022-12-15T13:49:47;3.80;99.90
20070;DHT22;10195;50.868;4.382;2022-12-15T13:52:26;3.90;99.90
20070;DHT22;10195;50.868;4.382;2022-12-15T13:55:00;4.00;99.90
20070;DHT22;10195;50.868;4.382;2022-12-15T13:57:32;3.80;99.90
20070;DHT22;10195;50.868;4.382;2022-12-15T14:00:08;3.80;99.90
20070;DHT22;10195;50.868;4.382;2022-12-15T14:02:43;3.90;99.90
20070;DHT22;10195;50.868;4.382;2022-12-15T14:05:18;3.90;99.90
20070;DHT22;10195;50.868;4.382;2022-12-15T14:13:05;3.70;99.90
20070;DHT22;10195;50.868;4.382;2022-12-15T14:15:44;3.60;99.90
20070;DHT22;10195;50.868;4.382;2022-12-15T14:18:22;3.50;99.90
20070;DHT22;10195;50.868;4.382;2022-12-15T14:20:49;3.40;99.90
20070;DHT22;10195;50.868;4.382;2022-12-15T14:23:24;3.40;99.90
20070;DHT22;10195;50.868;4.382;2022-12-15T14:26:10;3.50;99.90
20070;DHT22;10195;50.868;4.382;2022-12-15T14:28:38;3.50;99.90
20070;DHT22;10195;50.868;4.382;2022-12-15T14:33:40;3.30;99.90
20070;DHT22;10195;50.868;4.382;2022-12-15T14:36:09;3.30;99.90
20070;DHT22;10195;50.868;4.382;2022-12-15T14:38:50;3.30;99.90
20070;DHT22;10195;50.868;4.382;2022-12-15T14:41:29;3.30;99.90
20070;DHT22;10195;50.868;4.382;2022-12-15T14:43:58;3.30;99.90
20070;DHT22;10195;50.868;4.382;2022-12-15T14:46:25;3.20;99.90
20070;DHT22;10195;50.868;4.382;2022-12-15T14:49:39;3.10;99.90
20070;DHT22;10195;50.868;4.382;2022-12-15T14:52:05;3.00;99.90
20070;DHT22;10195;50.868;4.382;2022-12-15T14:54:36;3.20;99.90
20070;DHT22;10195;50.868;4.382;2022-12-15T14:59:33;3.10;99.90
20070;DHT22;10195;50.868;4.382;2022-12-15T15:02:17;3.20;99.90
20070;DHT22;10195;50.868;4.382;2022-12-15T15:04:58;3.20;99.90
20070;DHT22;10195;50.868;4.382;2022-12-15T15:07:34;3.20;99.90
20070;DHT22;10195;50.868;4.382;2022-12-15T15:10:01;3.10;99.90
20070;DHT22;10195;50.868;4.382;2022-12-15T15:12:54;2.90;99.90
20070;DHT22;10195;50.868;4.382;2022-12-15T15:15:26;2.90;99.90
20070;DHT22;10195;50.868;4.382;2022-12-15T15:17:54;3.00;99.90
20070;DHT22;10195;50.868;4.382;2022-12-15T15:20:26;2.90;99.90
20070;DHT22;10195;50.868;4.382;2022-12-15T15:23:17;3.00;99.90
20070;DHT22;10195;50.868;4.382;2022-12-15T15:25:56;3.00;99.90
20070;DHT22;10195;50.868;4.382;2022-12-15T15:28:26;3.00;99.90
20070;DHT22;10195;50.868;4.382;2022-12-15T15:30:53;3.00;99.90
20070;DHT22;10195;50.868;4.382;2022-12-15T15:33:19;3.00;99.90
20070;DHT22;10195;50.868;4.382;2022-12-15T15:35:54;2.90;99.90
20070;DHT22;10195;50.868;4.382;2022-12-15T15:40:54;2.90;99.90
20070;DHT22;10195;50.868;4.382;2022-12-15T15:43:20;2.90;99.90
20070;DHT22;10195;50.868;4.382;2022-12-15T15:45:47;2.80;99.90
20070;DHT22;10195;50.868;4.382;2022-12-15T15:48:17;2.70;99.90
20070;DHT22;10195;50.868;4.382;2022-12-15T15:50:45;2.60;99.90
20070;DHT22;10195;50.868;4.382;2022-12-15T15:53:15;2.50;99.90
20070;DHT22;10195;50.868;4.382;2022-12-15T15:55:43;2.40;99.90
20070;DHT22;10195;50.868;4.382;2022-12-15T15:58:12;2.30;99.90
20070;DHT22;10195;50.868;4.382;2022-12-15T16:00:38;2.30;99.90
20070;DHT22;10195;50.868;4.382;2022-12-15T16:03:04;2.20;99.90
20070;DHT22;10195;50.868;4.382;2022-12-15T16:05:30;2.10;99.90
20070;DHT22;10195;50.868;4.382;2022-12-15T16:07:56;2.00;99.90
20070;DHT22;10195;50.868;4.382;2022-12-15T16:10:23;1.90;99.90
20070;DHT22;10195;50.868;4.382;2022-12-15T16:12:50;1.80;99.90
20070;DHT22;10195;50.868;4.382;2022-12-15T16:15:20;1.90;99.90
20070;DHT22;10195;50.868;4.382;2022-12-15T16:17:46;1.80;99.90
20070;DHT22;10195;50.868;4.382;2022-12-15T16:20:14;1.80;99.90
20070;DHT22;10195;50.868;4.382;2022-12-15T16:22:41;1.70;99.90
20070;DHT22;10195;50.868;4.382;2022-12-15T16:25:13;1.60;99.90
20070;DHT22;10195;50.868;4.382;2022-12-15T16:27:39;1.50;99.90
20070;DHT22;10195;50.868;4.382;2022-12-15T16:30:18;1.40;99.90
20070;DHT22;10195;50.868;4.382;2022-12-15T16:32:44;1.30;99.90
20070;DHT22;10195;50.868;4.382;2022-12-15T16:35:10;1.30;99.90
20070;DHT22;10195;50.868;4.382;2022-12-15T16:37:36;1.30;99.90
20070;DHT22;10195;50.868;4.382;2022-12-15T16:40:03;1.30;99.90
20070;DHT22;10195;50.868;4.382;2022-12-15T16:42:37;1.30;99.90
20070;DHT22;10195;50.868;4.382;2022-12-15T16:45:13;1.30;99.90
20070;DHT22;10195;50.868;4.382;2022-12-15T16:47:39;1.20;99.90
20070;DHT22;10195;50.868;4.382;2022-12-15T16:50:05;1.20;99.90
20070;DHT22;10195;50.868;4.382;2022-12-15T16:52:31;1.20;99.90
20070;DHT22;10195;50.868;4.382;2022-12-15T16:54:57;1.20;99.90
20070;DHT22;10195;50.868;4.382;2022-12-15T16:57:22;1.30;99.90
20070;DHT22;10195;50.868;4.382;2022-12-15T16:59:48;1.60;99.90
20070;DHT22;10195;50.868;4.382;2022-12-15T17:02:25;1.60;99.90
20070;DHT22;10195;50.868;4.382;2022-12-15T17:04:51;1.70;99.90
20070;DHT22;10195;50.868;4.382;2022-12-15T17:07:20;1.80;99.90
20070;DHT22;10195;50.868;4.382;2022-12-15T17:09:46;1.70;99.90
20070;DHT22;10195;50.868;4.382;2022-12-15T17:12:14;1.70;99.90
20070;DHT22;10195;50.868;4.382;2022-12-15T17:14:41;1.90;99.90
20070;DHT22;10195;50.868;4.382;2022-12-15T17:17:15;1.90;99.90
20070;DHT22;10195;50.868;4.382;2022-12-15T17:19:41;2.00;99.90
20070;DHT22;10195;50.868;4.382;2022-12-15T17:22:11;2.20;99.90
20070;DHT22;10195;50.868;4.382;2022-12-15T17:24:42;2.20;99.90
20070;DHT22;10195;50.868;4.382;2022-12-15T17:27:21;2.40;99.90
20070;DHT22;10195;50.868;4.382;2022-12-15T17:29:47;2.40;99.90
20070;DHT22;10195;50.868;4.382;2022-12-15T17:32:13;2.40;99.90
20070;DHT22;10195;50.868;4.382;2022-12-15T17:34:38;2.50;99.90
20070;DHT22;10195;50.868;4.382;2022-12-15T17:37:08;2.50;99.90
20070;DHT22;10195;50.868;4.382;2022-12-15T17:39:36;2.50;99.90
20070;DHT22;10195;50.868;4.382;2022-12-15T17:42:02;2.50;99.90
20070;DHT22;10195;50.868;4.382;2022-12-15T17:44:33;2.50;99.90
20070;DHT22;10195;50.868;4.382;2022-12-15T17:46:59;2.60;99.90
20070;DHT22;10195;50.868;4.382;2022-12-15T17:49:25;2.50;99.90
20070;DHT22;10195;50.868;4.382;2022-12-15T17:51:51;2.60;99.90
20070;DHT22;10195;50.868;4.382;2022-12-15T17:54:17;2.70;99.90
20070;DHT22;10195;50.868;4.382;2022-12-15T17:56:45;2.60;99.90
20070;DHT22;10195;50.868;4.382;2022-12-15T17:59:16;2.70;99.90
20070;DHT22;10195;50.868;4.382;2022-12-15T18:01:42;2.60;99.90
20070;DHT22;10195;50.868;4.382;2022-12-15T18:04:09;2.60;99.90
20070;DHT22;10195;50.868;4.382;2022-12-15T18:06:36;2.60;99.90
20070;DHT22;10195;50.868;4.382;2022-12-15T18:09:02;2.80;99.90
20070;DHT22;10195;50.868;4.382;2022-12-15T18:11:28;2.50;99.90
20070;DHT22;10195;50.868;4.382;2022-12-15T18:13:55;2.60;99.90
20070;DHT22;10195;50.868;4.382;2022-12-15T18:16:21;2.80;99.90
20070;DHT22;10195;50.868;4.382;2022-12-15T18:18:46;2.70;99.90
20070;DHT22;10195;50.868;4.382;2022-12-15T18:21:14;3.00;99.90